Time;durP1;ratioP1;P1;durP2;ratioP2;P2;SDS_P1;SDS_P2;PMS_P1;PMS_P2;Temp;Humidity;BMP_temperature;BMP_pressure;BME280_temperature;BME280_humidity;BME280_pressure;Samples;Min_cycle;Max_cycle;Signal;HPM_P1;HPM_P2
2022/01/22 00:00:46;;;;;;;4.93;3.23;;;2.80;99.90;;;;;;5015167;28;20205;-67
2022/01/22 00:03:12;;;;;;;4.90;3.93;;;2.80;99.90;;;;;;5015047;28;20440;-68
2022/01/22 00:05:38;;;;;;;6.68;3.70;;;2.80;99.90;;;;;;5014970;28;20488;-69
2022/01/22 00:08:04;;;;;;;6.13;3.95;;;2.80;99.90;;;;;;5014430;28;20653;-68
2022/01/22 00:10:30;;;;;;;5.40;3.57;;;2.80;99.90;;;;;;5013502;28;20201;-70
2022/01/22 00:13:08;;;;;;;7.17;4.43;;;2.90;99.90;;;;;;5014490;28;20414;-69
2022/01/22 00:15:35;;;;;;;3.33;3.03;;;2.90;99.90;;;;;;5014828;28;20402;-70
2022/01/22 00:18:01;;;;;;;3.53;2.85;;;2.90;99.90;;;;;;5013984;28;20181;-67
2022/01/22 00:20:31;;;;;;;4.60;4.23;;;2.90;99.90;;;;;;5014738;28;20693;-68
2022/01/22 00:22:56;;;;;;;4.55;3.50;;;2.90;99.90;;;;;;5014622;28;20409;-68
2022/01/22 00:25:23;;;;;;;5.50;4.00;;;2.90;99.90;;;;;;5014346;28;20221;-68
2022/01/22 00:27:50;;;;;;;6.07;3.95;;;3.00;99.90;;;;;;5013962;28;20653;-67
2022/01/22 00:30:20;;;;;;;7.47;4.43;;;3.00;99.90;;;;;;5014240;28;20206;-68
2022/01/22 00:32:46;;;;;;;4.78;3.83;;;3.10;99.90;;;;;;5014680;28;20232;-68
2022/01/22 00:35:12;;;;;;;5.73;3.20;;;3.10;99.90;;;;;;5014244;28;20265;-66
2022/01/22 00:37:41;;;;;;;3.40;2.10;;;3.10;99.90;;;;;;5014141;28;20872;-69
2022/01/22 00:40:09;;;;;;;4.47;4.07;;;3.10;99.90;;;;;;5014521;28;20194;-68
2022/01/22 00:42:35;;;;;;;6.35;4.60;;;3.10;99.90;;;;;;5014175;28;20159;-68
2022/01/22 00:45:02;;;;;;;7.07;3.30;;;3.20;99.90;;;;;;5014361;28;20629;-67
2022/01/22 00:47:27;;;;;;;9.68;3.22;;;3.10;99.90;;;;;;5012749;28;20175;-70
2022/01/22 00:49:53;;;;;;;3.57;3.10;;;3.20;99.90;;;;;;5013727;28;20707;-67
2022/01/22 00:52:19;;;;;;;8.50;4.50;;;3.20;99.90;;;;;;5012797;28;20647;-68
2022/01/22 00:54:45;;;;;;;5.07;3.87;;;3.20;99.90;;;;;;5014016;28;20429;-68
2022/01/22 00:57:11;;;;;;;3.83;3.37;;;3.20;99.90;;;;;;5012770;28;20684;-71
2022/01/22 00:59:37;;;;;;;4.20;3.80;;;3.30;99.90;;;;;;5013593;28;20198;-67
2022/01/22 01:02:03;;;;;;;5.10;3.60;;;3.20;99.90;;;;;;5014058;28;20185;-69
2022/01/22 01:04:32;;;;;;;4.93;3.55;;;3.30;99.90;;;;;;5013982;28;20257;-69
2022/01/22 01:06:58;;;;;;;6.32;3.40;;;3.30;99.90;;;;;;5014176;28;20200;-67
2022/01/22 01:09:24;;;;;;;4.07;3.67;;;3.30;99.90;;;;;;5013155;28;20713;-69
2022/01/22 01:11:55;;;;;;;5.80;4.47;;;3.40;99.90;;;;;;5014020;28;20162;-70
2022/01/22 01:14:28;;;;;;;6.15;3.95;;;3.30;99.90;;;;;;5013925;28;20309;-69
2022/01/22 01:35:54;;;;;;;6.47;4.97;;;3.40;99.90;;;;;;5014019;28;20154;-70
2022/01/22 01:38:22;;;;;;;4.80;3.77;;;3.50;99.90;;;;;;5013917;28;20257;-69
2022/01/22 01:40:58;;;;;;;4.15;3.80;;;3.40;99.90;;;;;;5014388;28;20251;-69
2022/01/22 01:43:30;;;;;;;3.45;3.17;;;3.50;99.90;;;;;;5014677;28;20228;-69
2022/01/22 01:45:55;;;;;;;3.25;2.85;;;3.50;99.90;;;;;;5014923;28;20575;-68
2022/01/22 01:48:25;;;;;;;5.40;3.50;;;3.50;99.90;;;;;;5014036;28;20249;-68
2022/01/22 01:50:51;;;;;;;7.18;4.95;;;3.60;99.90;;;;;;5014443;28;20552;-70
2022/01/22 01:58:16;;;;;;;9.35;3.58;;;3.60;99.90;;;;;;5013134;28;20185;-67
2022/01/22 02:00:41;;;;;;;3.85;3.10;;;3.60;99.90;;;;;;5013476;28;20190;-67
2022/01/22 02:03:09;;;;;;;2.40;2.20;;;3.70;99.90;;;;;;5013454;28;20183;-67
2022/01/22 02:05:36;;;;;;;5.53;3.55;;;3.70;99.90;;;;;;5013212;28;20179;-68
2022/01/22 02:08:03;;;;;;;12.20;4.20;;;3.70;99.90;;;;;;5013012;28;20641;-68
2022/01/22 02:10:32;;;;;;;7.15;3.92;;;3.70;99.90;;;;;;5013061;28;20199;-68
2022/01/22 02:13:40;;;;;;;4.45;3.90;;;3.70;99.90;;;;;;5013180;28;20194;-69
2022/01/22 02:23:58;;;;;;;4.97;4.57;;;3.80;99.90;;;;;;5013596;28;20218;-68
2022/01/22 02:26:24;;;;;;;4.32;3.53;;;3.80;99.90;;;;;;5013089;28;20172;-68
2022/01/22 02:28:51;;;;;;;12.13;6.70;;;3.80;99.90;;;;;;5012687;28;20207;-71
2022/01/22 02:31:38;;;;;;;4.78;4.38;;;3.80;99.90;;;;;;5013050;28;20410;-70
2022/01/22 02:34:23;;;;;;;5.10;4.53;;;3.80;99.90;;;;;;5014020;28;20521;-70
2022/01/22 02:39:32;;;;;;;9.98;4.68;;;3.90;99.90;;;;;;5016423;28;20194;-69
2022/01/22 02:41:58;;;;;;;5.55;4.15;;;3.80;99.90;;;;;;5031728;28;20166;-68
2022/01/22 02:44:34;;;;;;;3.87;3.43;;;3.80;99.90;;;;;;5015363;28;20270;-68
2022/01/22 02:47:01;;;;;;;5.15;3.08;;;3.80;99.90;;;;;;5016490;28;20178;-70
2022/01/22 02:49:27;;;;;;;4.72;4.22;;;3.80;99.90;;;;;;5015722;28;20202;-68
2022/01/22 02:51:57;;;;;;;4.57;3.27;;;3.80;99.90;;;;;;5016106;28;20225;-69
2022/01/22 02:54:23;;;;;;;6.45;4.32;;;3.80;99.90;;;;;;5016037;28;20425;-70
2022/01/22 02:56:49;;;;;;;8.57;4.67;;;3.80;99.90;;;;;;5016162;28;20175;-69
2022/01/22 02:59:20;;;;;;;4.63;4.07;;;3.80;99.90;;;;;;5015578;28;20696;-69
2022/01/22 03:01:46;;;;;;;6.07;4.32;;;3.80;99.90;;;;;;5016665;28;20167;-68
2022/01/22 03:04:12;;;;;;;6.60;3.70;;;3.80;99.90;;;;;;5015929;28;20213;-67
2022/01/22 03:06:38;;;;;;;4.50;3.83;;;3.80;99.90;;;;;;5015810;28;20217;-68
2022/01/22 03:09:07;;;;;;;12.53;4.70;;;3.80;99.90;;;;;;5015413;28;20211;-69
2022/01/22 03:11:42;;;;;;;7.18;4.63;;;3.80;99.90;;;;;;5016086;28;20217;-70
2022/01/22 03:16:56;;;;;;;6.90;5.30;;;3.80;99.90;;;;;;5015952;28;20163;-69
2022/01/22 03:19:56;;;;;;;9.10;5.45;;;3.80;99.90;;;;;;5015631;28;20194;-69
2022/01/22 03:22:18;;;;;;;3.60;3.28;;;3.80;99.90;;;;;;5015236;28;20233;-70
2022/01/22 03:27:31;;;;;;;5.35;4.85;;;3.80;99.90;;;;;;5015747;28;20672;-68
2022/01/22 03:29:57;;;;;;;4.70;3.85;;;3.80;99.90;;;;;;5015438;28;20691;-69
2022/01/22 03:32:26;;;;;;;5.43;4.32;;;3.80;99.90;;;;;;5015661;28;20198;-68
2022/01/22 03:35:55;;;;;;;4.28;3.15;;;3.80;99.90;;;;;;5015209;28;20167;-69
2022/01/22 03:37:51;;;;;;;8.25;5.57;;;3.80;99.90;;;;;;5005993;28;20716;-68
2022/01/22 03:40:21;;;;;;;3.13;2.85;;;3.80;99.90;;;;;;5015283;28;20202;-69
2022/01/22 03:42:47;;;;;;;7.38;5.45;;;3.80;99.90;;;;;;5015554;28;20175;-68
2022/01/22 03:45:13;;;;;;;14.63;4.43;;;3.80;99.90;;;;;;5015039;28;20214;-71
2022/01/22 03:47:40;;;;;;;4.25;3.88;;;3.80;99.90;;;;;;5014650;28;20178;-68
2022/01/22 03:50:08;;;;;;;14.52;3.70;;;3.80;99.90;;;;;;5014702;28;20210;-69
2022/01/22 03:52:34;;;;;;;10.73;6.65;;;3.80;99.90;;;;;;5015091;28;20171;-69
2022/01/22 03:54:59;;;;;;;6.80;4.87;;;3.70;99.90;;;;;;5015188;28;20173;-69
2022/01/22 03:57:25;;;;;;;4.77;4.27;;;3.70;99.90;;;;;;5014885;28;20175;-69
2022/01/22 03:59:53;;;;;;;10.93;5.03;;;3.80;99.90;;;;;;5014660;28;20199;-68
2022/01/22 04:04:50;;;;;;;3.60;3.30;;;3.80;99.90;;;;;;5014386;28;20178;-67
2022/01/22 04:10:03;;;;;;;6.43;4.03;;;3.80;99.90;;;;;;5014671;28;20298;-69
2022/01/22 04:12:53;;;;;;;9.77;4.72;;;3.80;99.90;;;;;;5014784;28;20173;-69
2022/01/22 04:15:22;;;;;;;7.72;5.10;;;3.70;99.90;;;;;;5014647;28;20171;-68
2022/01/22 04:25:49;;;;;;;5.40;4.40;;;3.80;99.90;;;;;;5014419;28;20177;-68
2022/01/22 04:28:14;;;;;;;5.32;4.15;;;3.80;99.90;;;;;;5014000;28;20588;-67
2022/01/22 04:30:40;;;;;;;8.23;5.17;;;3.80;99.90;;;;;;5014097;28;20191;-69
2022/01/22 04:33:06;;;;;;;7.27;4.47;;;3.80;99.90;;;;;;5014519;28;20178;-68
2022/01/22 04:35:32;;;;;;;8.33;5.50;;;3.80;99.90;;;;;;5014067;28;20175;-68
2022/01/22 04:37:58;;;;;;;6.93;4.03;;;3.90;99.90;;;;;;5014095;28;20175;-67
2022/01/22 04:40:24;;;;;;;5.90;5.13;;;3.80;99.90;;;;;;5014157;28;20194;-68
2022/01/22 04:42:50;;;;;;;11.60;6.10;;;3.90;99.90;;;;;;5014140;28;20751;-69
2022/01/22 04:45:28;;;;;;;5.07;3.83;;;3.90;99.90;;;;;;5014321;28;20171;-69
2022/01/22 04:48:13;;;;;;;6.80;5.15;;;3.90;99.90;;;;;;5013884;28;20155;-69
2022/01/22 04:55:54;;;;;;;6.10;4.32;;;3.90;99.90;;;;;;5014031;28;20181;-69
2022/01/22 04:58:20;;;;;;;7.20;5.30;;;3.90;99.90;;;;;;5012088;28;20544;-68
2022/01/22 05:00:46;;;;;;;8.97;6.47;;;3.90;99.90;;;;;;5013830;28;20572;-68
2022/01/22 05:03:12;;;;;;;7.80;6.70;;;3.90;99.90;;;;;;5013620;28;20257;-69
2022/01/22 05:05:38;;;;;;;8.77;5.60;;;3.90;99.90;;;;;;5014687;28;20258;-71
2022/01/22 05:08:04;;;;;;;5.17;4.77;;;3.90;99.90;;;;;;5014468;28;20582;-69
2022/01/22 05:10:30;;;;;;;3.60;3.00;;;3.90;99.90;;;;;;5015429;28;20187;-71
2022/01/22 05:12:55;;;;;;;6.70;4.63;;;4.00;99.90;;;;;;5015588;28;20390;-71
2022/01/22 05:15:21;;;;;;;10.60;5.00;;;4.00;99.90;;;;;;5017190;28;20210;-69
2022/01/22 05:17:48;;;;;;;7.00;4.55;;;4.00;99.90;;;;;;5018535;28;20175;-67
2022/01/22 05:25:20;;;;;;;5.70;4.00;;;4.00;99.90;;;;;;5013761;28;20543;-69
2022/01/22 05:38:23;;;;;;;7.15;5.10;;;4.00;99.90;;;;;;5013548;28;20715;-68
2022/01/22 05:40:49;;;;;;;7.43;3.78;;;4.00;99.90;;;;;;5013713;28;20175;-69
2022/01/22 05:43:16;;;;;;;5.60;3.50;;;4.10;99.90;;;;;;5013324;28;20276;-68
2022/01/22 05:45:42;;;;;;;5.10;4.13;;;4.00;99.90;;;;;;5013097;28;20187;-70
2022/01/22 05:48:08;;;;;;;11.98;5.97;;;4.00;99.90;;;;;;5015715;28;20171;-68
2022/01/22 05:50:46;;;;;;;7.50;5.13;;;4.00;99.90;;;;;;5014336;28;20209;-70
2022/01/22 06:01:17;;;;;;;6.57;4.45;;;4.00;99.90;;;;;;5013910;28;20229;-68
2022/01/22 06:03:44;;;;;;;6.03;4.25;;;4.00;99.90;;;;;;5013517;28;20194;-68
2022/01/22 06:06:10;;;;;;;4.93;3.97;;;4.00;99.90;;;;;;5013465;28;20206;-68
2022/01/22 06:08:45;;;;;;;5.32;4.82;;;4.00;99.90;;;;;;5014615;28;20203;-70
2022/01/22 06:11:12;;;;;;;6.22;5.13;;;4.10;99.90;;;;;;5017115;28;20209;-68
2022/01/22 06:13:44;;;;;;;4.68;3.58;;;4.10;99.90;;;;;;5017095;28;20166;-67
2022/01/22 06:16:15;;;;;;;5.18;4.68;;;4.10;99.90;;;;;;5016966;28;20175;-69
2022/01/22 06:18:41;;;;;;;10.05;4.40;;;4.00;99.90;;;;;;5016081;28;20636;-69
2022/01/22 06:21:11;;;;;;;8.63;4.25;;;4.10;99.90;;;;;;5016936;28;20174;-67
2022/01/22 06:23:38;;;;;;;6.38;4.80;;;4.10;99.90;;;;;;5016708;28;20171;-69
2022/01/22 06:26:05;;;;;;;9.70;5.47;;;4.00;99.90;;;;;;5015554;28;20652;-69
2022/01/22 06:28:32;;;;;;;6.45;4.80;;;4.00;99.90;;;;;;5016507;28;20223;-68
2022/01/22 06:30:59;;;;;;;8.23;4.50;;;4.10;99.90;;;;;;5016947;28;20521;-68
2022/01/22 06:33:24;;;;;;;6.32;3.83;;;4.00;99.90;;;;;;5016676;28;20179;-66
2022/01/22 06:35:51;;;;;;;7.77;4.87;;;4.10;99.90;;;;;;5017147;28;20186;-69
2022/01/22 06:38:20;;;;;;;4.50;4.10;;;4.10;99.90;;;;;;5016458;28;20413;-68
2022/01/22 06:43:30;;;;;;;7.93;4.88;;;4.10;99.90;;;;;;5016921;28;20584;-71
2022/01/22 06:45:57;;;;;;;8.67;5.73;;;4.10;99.90;;;;;;5016653;28;20172;-67
2022/01/22 06:48:23;;;;;;;7.82;4.65;;;4.10;99.90;;;;;;5015549;28;20431;-68
2022/01/22 06:50:49;;;;;;;7.18;5.00;;;4.10;99.90;;;;;;5016242;28;20179;-67
2022/01/22 06:53:14;;;;;;;6.27;5.77;;;4.10;99.90;;;;;;5016375;28;20515;-68
2022/01/22 06:55:55;;;;;;;5.53;4.00;;;4.10;99.90;;;;;;5015208;28;20595;-69
2022/01/22 06:58:21;;;;;;;5.28;4.32;;;4.10;99.90;;;;;;5014560;28;20178;-69
2022/01/22 07:00:46;;;;;;;5.37;4.87;;;4.10;99.90;;;;;;5016593;28;20170;-67
2022/01/22 07:03:12;;;;;;;6.10;4.00;;;4.10;99.90;;;;;;5016022;28;20292;-67
2022/01/22 07:05:38;;;;;;;6.40;5.17;;;4.10;99.90;;;;;;5015924;28;20179;-68
2022/01/22 07:08:03;;;;;;;11.20;5.50;;;4.10;99.90;;;;;;5015487;28;20265;-69
2022/01/22 07:10:30;;;;;;;5.70;5.20;;;4.20;99.90;;;;;;5016179;28;20187;-69
2022/01/22 07:12:56;;;;;;;10.00;7.13;;;4.20;99.90;;;;;;5015969;28;20428;-67
2022/01/22 07:15:22;;;;;;;9.53;4.47;;;4.20;99.90;;;;;;5016083;28;20179;-66
2022/01/22 07:17:48;;;;;;;7.13;4.30;;;4.20;99.90;;;;;;5015080;28;20808;-67
2022/01/22 07:20:16;;;;;;;6.67;5.43;;;4.20;99.90;;;;;;5015220;28;20208;-69
2022/01/22 07:23:04;;;;;;;7.05;5.03;;;4.20;99.90;;;;;;5015788;28;20182;-67
2022/01/22 07:25:30;;;;;;;5.38;4.47;;;4.20;99.90;;;;;;5015734;28;20198;-67
2022/01/22 07:27:56;;;;;;;6.10;3.77;;;4.20;99.90;;;;;;5015182;28;20972;-67
2022/01/22 07:30:22;;;;;;;4.35;3.80;;;4.20;99.90;;;;;;5015593;28;20426;-68
2022/01/22 07:32:47;;;;;;;11.90;5.60;;;4.20;99.90;;;;;;5015293;28;20174;-68
2022/01/22 07:35:18;;;;;;;7.07;4.53;;;4.20;99.90;;;;;;5015817;28;20174;-66
2022/01/22 07:37:44;;;;;;;9.13;4.82;;;4.30;99.90;;;;;;5014921;28;20167;-69
2022/01/22 07:40:10;;;;;;;6.27;4.47;;;4.30;99.90;;;;;;5015331;28;20202;-68
2022/01/22 07:42:37;;;;;;;4.93;4.28;;;4.30;99.90;;;;;;5015439;28;20590;-69
2022/01/22 07:45:04;;;;;;;9.13;4.43;;;4.30;99.90;;;;;;5015681;28;20646;-69
2022/01/22 07:47:30;;;;;;;5.20;4.10;;;4.20;99.90;;;;;;5014587;28;20649;-67
2022/01/22 07:49:56;;;;;;;4.87;4.30;;;4.20;99.90;;;;;;5014774;28;20214;-69
2022/01/22 07:52:22;;;;;;;7.63;4.15;;;4.20;99.90;;;;;;5015171;28;20508;-68
2022/01/22 07:54:48;;;;;;;6.95;4.25;;;4.20;99.90;;;;;;5014296;28;20203;-68
2022/01/22 07:57:14;;;;;;;21.93;6.07;;;4.30;99.90;;;;;;5014810;28;20202;-68
2022/01/22 07:59:39;;;;;;;4.53;4.03;;;4.30;99.90;;;;;;5014617;28;20245;-69
2022/01/22 08:02:05;;;;;;;6.37;4.60;;;4.30;99.90;;;;;;5014865;28;20171;-69
2022/01/22 08:04:32;;;;;;;11.35;5.80;;;4.30;99.90;;;;;;5014851;28;20175;-67
2022/01/22 08:07:01;;;;;;;4.63;3.35;;;4.30;99.90;;;;;;5014863;28;20181;-68
2022/01/22 08:09:27;;;;;;;7.63;4.40;;;4.30;99.90;;;;;;5013984;28;20612;-67
2022/01/22 08:11:53;;;;;;;6.90;4.23;;;4.30;99.90;;;;;;5014741;28;20172;-68
2022/01/22 08:14:19;;;;;;;9.00;3.80;;;4.30;99.90;;;;;;5013261;28;20493;-68
2022/01/22 08:16:46;;;;;;;7.03;4.40;;;4.30;99.90;;;;;;5014506;28;20394;-68
2022/01/22 08:19:14;;;;;;;8.10;5.25;;;4.30;99.90;;;;;;5014091;28;20680;-66
2022/01/22 08:21:40;;;;;;;16.60;5.65;;;4.20;99.90;;;;;;5014842;28;20530;-68
2022/01/22 08:24:06;;;;;;;4.40;3.28;;;4.30;99.90;;;;;;5014399;28;20693;-69
2022/01/22 08:26:36;;;;;;;6.47;4.60;;;4.30;99.90;;;;;;5014547;28;20543;-68
2022/01/22 08:29:03;;;;;;;14.70;4.57;;;4.20;99.90;;;;;;5014115;28;20289;-69
2022/01/22 08:36:41;;;;;;;9.73;3.92;;;4.20;99.90;;;;;;5014707;28;20173;-70
2022/01/22 08:39:07;;;;;;;9.80;4.70;;;4.20;99.90;;;;;;5013768;28;20193;-69
2022/01/22 08:41:33;;;;;;;7.83;4.33;;;4.20;99.90;;;;;;5014370;28;20174;-69
2022/01/22 08:44:00;;;;;;;7.03;6.30;;;4.20;99.90;;;;;;5013867;28;20538;-69
2022/01/22 08:46:27;;;;;;;7.03;4.50;;;4.20;99.90;;;;;;5014079;28;20167;-67
2022/01/22 08:48:53;;;;;;;8.40;3.80;;;4.20;99.90;;;;;;5013528;28;20211;-67
2022/01/22 08:51:18;;;;;;;4.63;4.13;;;4.20;99.90;;;;;;5013903;28;20237;-69
2022/01/22 08:53:44;;;;;;;6.00;3.83;;;4.20;99.90;;;;;;5013584;28;20414;-70
2022/01/22 08:56:10;;;;;;;6.27;4.40;;;4.20;99.90;;;;;;5013785;28;20206;-69
2022/01/22 08:58:36;;;;;;;5.90;3.80;;;4.30;99.90;;;;;;5013327;28;20221;-69
2022/01/22 09:01:02;;;;;;;5.30;3.75;;;4.30;99.90;;;;;;5013839;28;20182;-69
2022/01/22 09:03:28;;;;;;;8.85;5.80;;;4.30;99.90;;;;;;5013784;28;20181;-69
2022/01/22 09:05:55;;;;;;;8.65;4.47;;;4.40;99.90;;;;;;5013763;28;20182;-69
2022/01/22 09:08:23;;;;;;;7.25;5.13;;;4.40;99.90;;;;;;5013001;28;20208;-69
2022/01/22 09:10:50;;;;;;;5.28;3.55;;;4.40;99.90;;;;;;5013687;28;20174;-69
2022/01/22 09:13:16;;;;;;;10.10;5.70;;;4.40;99.90;;;;;;5013190;28;20187;-68
2022/01/22 09:15:42;;;;;;;4.65;3.55;;;4.50;99.90;;;;;;5013721;28;20174;-69
2022/01/22 09:18:08;;;;;;;8.75;4.55;;;4.50;99.90;;;;;;5013207;28;20628;-67
2022/01/22 09:23:05;;;;;;;5.85;2.92;;;4.50;99.90;;;;;;5013633;28;20637;-68
2022/01/22 09:25:30;;;;;;;5.43;3.95;;;4.50;99.90;;;;;;5013566;28;20193;-69
2022/01/22 09:27:56;;;;;;;8.60;3.80;;;4.60;99.90;;;;;;5013005;28;20637;-70
2022/01/22 09:30:22;;;;;;;9.80;6.00;;;4.60;99.90;;;;;;5013292;28;20213;-67
2022/01/22 09:32:48;;;;;;;5.37;4.83;;;4.60;99.90;;;;;;5013367;28;20168;-69
2022/01/22 09:35:14;;;;;;;7.15;4.35;;;4.60;99.90;;;;;;5013368;28;20266;-69
2022/01/22 09:37:40;;;;;;;5.57;4.05;;;4.70;99.90;;;;;;5012951;28;20166;-69
2022/01/22 09:40:07;;;;;;;8.87;5.30;;;4.80;99.90;;;;;;5013186;28;20190;-70
2022/01/22 09:42:33;;;;;;;7.88;5.00;;;4.90;99.90;;;;;;5013570;28;20175;-70
2022/01/22 09:44:58;;;;;;;6.05;4.38;;;4.90;99.90;;;;;;5017518;28;20250;-70
2022/01/22 09:47:25;;;;;;;6.90;4.13;;;5.00;99.90;;;;;;5016945;28;20253;-68
2022/01/22 09:49:50;;;;;;;6.53;4.28;;;5.00;99.90;;;;;;5016744;28;20204;-69
2022/01/22 09:52:17;;;;;;;4.50;4.07;;;5.10;99.90;;;;;;5015653;28;20182;-68
2022/01/22 09:54:42;;;;;;;5.28;4.35;;;5.10;99.90;;;;;;5016870;28;20183;-69
2022/01/22 09:57:09;;;;;;;7.67;5.43;;;5.10;99.90;;;;;;5015464;28;20183;-68
2022/01/22 09:59:35;;;;;;;13.40;5.20;;;5.10;99.90;;;;;;5016488;28;20203;-68
2022/01/22 10:02:11;;;;;;;6.80;5.73;;;5.10;99.90;;;;;;5017304;28;20174;-70
2022/01/22 10:04:39;;;;;;;8.43;4.72;;;5.10;99.90;;;;;;5017322;28;20409;-69
2022/01/22 10:07:04;;;;;;;7.78;4.20;;;5.20;99.90;;;;;;5016945;28;20223;-67
2022/01/22 10:09:37;;;;;;;6.87;4.57;;;5.20;99.90;;;;;;5016119;28;20685;-69
2022/01/22 10:12:14;;;;;;;9.27;4.80;;;5.20;99.90;;;;;;5031987;28;20185;-70
2022/01/22 10:15:04;;;;;;;7.85;4.35;;;5.20;99.90;;;;;;5016548;28;20205;-68
2022/01/22 10:17:48;;;;;;;6.05;4.22;;;5.20;99.90;;;;;;5016384;28;20174;-66
2022/01/22 10:20:32;;;;;;;8.65;6.43;;;5.30;99.90;;;;;;5016538;28;20219;-69
2022/01/22 10:23:01;;;;;;;8.55;4.60;;;5.20;99.90;;;;;;5014950;28;20182;-65
2022/01/22 10:25:36;;;;;;;4.82;3.63;;;5.30;99.90;;;;;;5016551;28;20155;-68
2022/01/22 10:28:18;;;;;;;7.05;3.15;;;5.30;99.90;;;;;;5016254;28;20673;-68
2022/01/22 10:30:45;;;;;;;7.00;3.55;;;5.20;99.90;;;;;;5015172;28;20234;-68
2022/01/22 10:33:28;;;;;;;6.05;3.92;;;5.20;99.90;;;;;;5016468;28;20229;-68
2022/01/22 10:36:09;;;;;;;4.25;3.85;;;5.30;99.90;;;;;;5015367;28;20174;-69
2022/01/22 10:38:50;;;;;;;6.97;3.65;;;5.30;99.90;;;;;;5015670;28;20183;-67
2022/01/22 10:41:20;;;;;;;7.38;3.72;;;5.30;99.90;;;;;;5016347;28;20172;-68
2022/01/22 10:43:54;;;;;;;12.13;3.95;;;5.20;99.90;;;;;;5016448;28;20181;-67
2022/01/22 10:46:42;;;;;;;6.80;3.03;;;5.30;99.90;;;;;;5016253;28;20171;-67
2022/01/22 10:49:14;;;;;;;4.60;3.30;;;5.30;99.90;;;;;;5015507;28;20290;-67
2022/01/22 10:51:55;;;;;;;5.13;3.63;;;5.30;99.90;;;;;;5016020;28;20286;-68
2022/01/22 10:54:29;;;;;;;5.07;3.15;;;5.40;99.90;;;;;;5015160;28;20168;-67
2022/01/22 10:57:16;;;;;;;5.75;2.90;;;5.40;99.90;;;;;;5015959;28;20170;-68
2022/01/22 10:59:48;;;;;;;9.45;3.83;;;5.40;99.90;;;;;;5015583;28;20255;-66
2022/01/22 11:02:17;;;;;;;4.43;4.03;;;5.40;99.90;;;;;;5015925;28;20164;-68
2022/01/22 11:04:44;;;;;;;6.80;4.75;;;5.40;99.90;;;;;;5015513;28;20178;-68
2022/01/22 11:07:16;;;;;;;6.30;3.45;;;5.40;99.90;;;;;;5016163;28;20166;-67
2022/01/22 11:09:42;;;;;;;6.20;4.32;;;5.50;99.90;;;;;;5015654;28;20211;-67
2022/01/22 11:12:08;;;;;;;14.50;4.70;;;5.50;99.90;;;;;;5016011;28;20232;-66
2022/01/22 11:14:37;;;;;;;7.38;5.43;;;5.50;99.90;;;;;;5016006;28;20568;-67
2022/01/22 11:17:05;;;;;;;3.53;3.22;;;5.50;99.90;;;;;;5015872;28;20530;-68
2022/01/22 11:19:35;;;;;;;5.43;4.25;;;5.50;99.90;;;;;;5014892;28;20198;-69
2022/01/22 11:22:10;;;;;;;8.48;3.40;;;5.50;99.90;;;;;;5015932;28;20175;-68
2022/01/22 11:24:42;;;;;;;5.38;3.83;;;5.50;99.90;;;;;;5015709;28;20180;-67
2022/01/22 11:27:11;;;;;;;5.22;4.75;;;5.50;99.90;;;;;;5014433;28;20207;-68
2022/01/22 11:29:42;;;;;;;3.13;2.90;;;5.50;99.90;;;;;;5013913;28;20235;-68
2022/01/22 11:32:12;;;;;;;7.32;5.43;;;5.40;99.90;;;;;;5015607;28;20167;-68
2022/01/22 11:34:40;;;;;;;7.82;4.32;;;5.50;99.90;;;;;;5014941;28;20211;-70
2022/01/22 11:37:24;;;;;;;6.80;3.95;;;5.50;99.90;;;;;;5015560;28;20520;-67
2022/01/22 11:40:32;;;;;;;3.80;3.30;;;5.50;99.90;;;;;;5014613;28;20194;-67
2022/01/22 11:43:12;;;;;;;5.90;3.40;;;5.50;99.90;;;;;;5015187;28;20180;-69
2022/01/22 11:45:51;;;;;;;4.22;3.38;;;5.50;99.90;;;;;;5015432;28;20206;-68
2022/01/22 11:48:26;;;;;;;3.88;3.58;;;5.50;99.90;;;;;;5014736;28;20217;-70
2022/01/22 11:51:15;;;;;;;4.45;3.50;;;5.60;99.90;;;;;;5015023;28;20569;-70
2022/01/22 11:53:52;;;;;;;4.40;3.50;;;5.50;99.90;;;;;;5014934;28;20517;-70
2022/01/22 11:56:36;;;;;;;4.38;3.70;;;5.60;99.90;;;;;;5015061;28;20165;-68
2022/01/22 11:59:14;;;;;;;3.80;3.47;;;5.70;99.90;;;;;;5014406;28;20212;-67
2022/01/22 12:01:45;;;;;;;6.28;3.47;;;5.60;99.90;;;;;;5013583;28;20178;-69
2022/01/22 12:04:15;;;;;;;5.47;4.03;;;5.60;99.90;;;;;;5014091;28;20645;-67
2022/01/22 12:07:02;;;;;;;7.85;3.45;;;5.60;99.90;;;;;;5013366;28;20595;-69
2022/01/22 12:15:23;;;;;;;4.88;3.78;;;5.60;99.90;;;;;;5014796;28;20181;-67
2022/01/22 12:18:07;;;;;;;5.68;3.50;;;5.70;99.90;;;;;;5014147;28;20611;-70
2022/01/22 12:21:30;;;;;;;4.95;3.67;;;5.70;99.90;;;;;;5004655;28;20208;-69
2022/01/22 12:23:39;;;;;;;5.63;3.75;;;5.70;99.90;;;;;;5014501;28;20182;-68
2022/01/22 12:26:05;;;;;;;3.70;3.40;;;5.70;99.90;;;;;;4994550;28;20621;-68
2022/01/22 12:28:41;;;;;;;4.13;2.77;;;5.70;99.90;;;;;;4994758;28;20229;-69
2022/01/22 12:31:19;;;;;;;4.90;3.35;;;5.70;99.90;;;;;;4994814;28;20293;-69
2022/01/22 12:33:49;;;;;;;3.10;2.65;;;5.70;99.90;;;;;;4994740;28;20649;-69
2022/01/22 12:36:20;;;;;;;4.88;3.38;;;5.70;99.90;;;;;;4994807;28;20167;-67
2022/01/22 12:39:11;;;;;;;6.03;3.35;;;5.70;99.90;;;;;;4997604;28;20277;-68
2022/01/22 12:44:23;;;;;;;4.00;3.70;;;5.70;99.90;;;;;;5014150;28;20312;-69
2022/01/22 12:46:50;;;;;;;5.10;4.15;;;5.70;99.90;;;;;;5014136;28;20185;-67
2022/01/22 12:49:17;;;;;;;6.43;3.60;;;5.70;99.90;;;;;;5013610;28;20288;-68
2022/01/22 12:51:43;;;;;;;4.85;3.65;;;5.70;99.90;;;;;;5014225;28;20253;-67
2022/01/22 12:54:08;;;;;;;5.70;5.17;;;5.70;99.90;;;;;;5014275;28;20259;-68
2022/01/22 12:56:49;;;;;;;6.10;3.80;;;5.70;99.90;;;;;;5012704;28;20263;-70
2022/01/22 12:59:15;;;;;;;3.72;3.40;;;5.60;99.90;;;;;;5013340;28;20195;-69
2022/01/22 13:01:47;;;;;;;6.43;3.55;;;5.60;99.90;;;;;;5012623;28;20209;-69
2022/01/22 13:04:13;;;;;;;3.63;3.33;;;5.60;99.90;;;;;;5013978;28;20181;-69
2022/01/22 13:06:50;;;;;;;7.85;3.95;;;5.60;99.90;;;;;;5013954;28;20206;-69
2022/01/22 13:09:16;;;;;;;5.10;2.42;;;5.60;99.90;;;;;;5013387;28;20204;-68
2022/01/22 13:11:46;;;;;;;3.93;3.63;;;5.60;99.90;;;;;;5013927;28;20586;-69
2022/01/22 13:14:32;;;;;;;4.78;3.45;;;5.60;99.90;;;;;;5013633;28;20822;-71
2022/01/22 13:16:58;;;;;;;3.63;3.13;;;5.60;99.90;;;;;;5013439;28;20261;-69
2022/01/22 13:19:28;;;;;;;3.20;3.00;;;5.60;99.90;;;;;;5012799;28;20209;-69
2022/01/22 13:21:59;;;;;;;6.70;4.68;;;5.60;99.90;;;;;;5013736;28;20278;-70
2022/01/22 13:24:27;;;;;;;6.55;4.78;;;5.60;99.90;;;;;;5013528;28;20171;-68
2022/01/22 13:27:01;;;;;;;12.48;6.95;;;5.60;99.90;;;;;;5013788;28;20210;-69
2022/01/22 13:29:32;;;;;;;7.05;4.10;;;5.50;99.90;;;;;;5013150;28;20200;-70
2022/01/22 13:49:10;;;;;;;5.25;3.80;;;5.40;99.90;;;;;;5013042;28;20256;-68
2022/01/22 13:51:38;;;;;;;6.07;3.58;;;5.40;99.90;;;;;;5012029;28;20668;-69
2022/01/22 13:54:04;;;;;;;5.30;4.00;;;5.40;99.90;;;;;;5013227;28;20213;-69
2022/01/22 13:56:58;;;;;;;10.20;4.30;;;5.40;99.90;;;;;;5013321;28;20163;-68
2022/01/22 13:59:25;;;;;;;5.75;5.10;;;5.50;99.90;;;;;;5012659;28;20450;-66
2022/01/22 14:04:51;;;;;;;11.52;4.60;;;5.60;99.90;;;;;;5013713;28;20170;-70
2022/01/22 14:07:23;;;;;;;10.88;4.93;;;5.50;99.90;;;;;;5013471;28;20199;-68
2022/01/22 14:09:54;;;;;;;8.88;4.82;;;5.50;99.90;;;;;;5012806;28;20727;-69
2022/01/22 14:12:20;;;;;;;10.70;5.60;;;5.50;99.90;;;;;;5013203;28;20635;-69
2022/01/22 14:14:56;;;;;;;7.60;4.47;;;5.50;99.90;;;;;;5013798;28;20586;-69
2022/01/22 14:17:24;;;;;;;5.70;5.20;;;5.50;99.90;;;;;;5012895;28;20172;-69
2022/01/22 14:20:22;;;;;;;6.10;4.13;;;5.50;99.90;;;;;;5012430;28;20288;-69
2022/01/22 14:23:01;;;;;;;5.07;4.10;;;5.50;99.90;;;;;;5011621;28;20191;-67
2022/01/22 14:25:28;;;;;;;8.32;6.00;;;5.60;99.90;;;;;;5012898;28;20629;-68
2022/01/22 14:27:56;;;;;;;5.93;5.13;;;5.60;99.90;;;;;;5012711;28;20169;-69
2022/01/22 14:30:43;;;;;;;8.10;4.32;;;5.60;99.90;;;;;;5015380;28;20287;-66
2022/01/22 14:33:11;;;;;;;6.43;5.43;;;5.60;99.90;;;;;;5015413;28;20524;-68
2022/01/22 14:35:38;;;;;;;5.30;4.80;;;5.50;99.90;;;;;;5017145;28;20182;-69
2022/01/22 14:46:46;;;;;;;5.82;4.38;;;5.50;99.90;;;;;;5023015;28;20192;-66
2022/01/22 14:49:13;;;;;;;8.48;5.38;;;5.40;99.90;;;;;;5033618;28;20609;-68
2022/01/22 14:51:39;;;;;;;5.65;4.30;;;5.40;99.90;;;;;;5033643;28;20344;-69
2022/01/22 14:54:06;;;;;;;7.47;4.40;;;5.40;99.90;;;;;;5033988;28;20275;-69
2022/01/22 14:56:31;;;;;;;8.82;3.70;;;5.40;99.90;;;;;;5033960;28;20583;-68
2022/01/22 14:58:57;;;;;;;4.93;4.53;;;5.40;99.90;;;;;;5033427;28;20245;-68
2022/01/22 15:01:23;;;;;;;4.77;4.33;;;5.30;99.90;;;;;;5033774;28;20234;-68
2022/01/22 15:03:48;;;;;;;7.73;4.50;;;5.30;99.90;;;;;;5033738;28;20545;-68
2022/01/22 15:06:14;;;;;;;8.40;5.33;;;5.30;99.90;;;;;;5033829;28;20270;-68
2022/01/22 15:08:40;;;;;;;6.97;5.00;;;5.30;99.90;;;;;;5032895;28;20259;-68
2022/01/22 15:11:05;;;;;;;4.43;4.00;;;5.30;99.90;;;;;;5030245;28;20185;-68
2022/01/22 15:13:31;;;;;;;9.13;4.40;;;5.30;99.90;;;;;;5016014;28;20220;-69
2022/01/22 15:16:01;;;;;;;7.60;5.20;;;5.30;99.90;;;;;;5015668;28;20637;-68
2022/01/22 15:19:14;;;;;;;5.75;5.10;;;5.30;99.90;;;;;;5015378;28;20195;-69